createdAt,value
2023-01-05T00:01:12.322Z,98718.88
2023-01-05T00:03:39.468Z,98711.75
2023-01-05T00:06:20.000Z,98709.94
2023-01-05T00:08:47.894Z,98699.56
2023-01-05T00:11:41.873Z,98707.47
2023-01-05T00:14:43.796Z,98715.06
2023-01-05T00:17:32.542Z,98713.78
2023-01-05T00:20:18.820Z,98697.72
2023-01-05T00:22:53.773Z,98693.16
2023-01-05T00:25:26.940Z,98697.13
2023-01-05T00:27:54.782Z,98703.16
2023-01-05T00:30:29.720Z,98706.25
2023-01-05T00:32:57.109Z,98687.06
2023-01-05T00:35:24.543Z,98679.16
2023-01-05T00:37:52.023Z,98689.03
2023-01-05T00:40:21.935Z,98677.06
2023-01-05T00:42:49.445Z,98692.69
2023-01-05T00:45:18.244Z,98688.66
2023-01-05T00:47:46.111Z,98686.84
2023-01-05T00:50:15.687Z,98695.41
2023-01-05T00:52:43.397Z,98689.25
2023-01-05T00:55:10.919Z,98693.84
2023-01-05T00:57:38.405Z,98700.91
2023-01-05T01:00:07.784Z,98698.91
2023-01-05T01:02:35.640Z,98696.75
2023-01-05T01:05:03.013Z,98685.94
2023-01-05T01:07:31.234Z,98687.50
2023-01-05T01:09:58.685Z,98686.31
2023-01-05T01:12:25.649Z,98689.19
2023-01-05T01:14:53.026Z,98682.84
2023-01-05T01:17:19.939Z,98689.94
2023-01-05T01:19:47.279Z,98692.34
2023-01-05T01:22:14.841Z,98687.16
2023-01-05T01:24:42.590Z,98679.22
2023-01-05T01:27:10.153Z,98686.31
2023-01-05T01:29:37.582Z,98679.72
2023-01-05T01:32:04.761Z,98689.56
2023-01-05T01:34:31.823Z,98675.63
2023-01-05T01:37:00.254Z,98671.91
2023-01-05T01:39:32.907Z,98672.88
2023-01-05T01:42:06.166Z,98688.75
2023-01-05T01:45:12.583Z,98677.09
2023-01-05T01:47:48.700Z,98677.94
2023-01-05T01:50:18.899Z,98682.50
2023-01-05T01:52:49.388Z,98672.75
2023-01-05T01:55:16.849Z,98679.13
2023-01-05T01:57:45.095Z,98678.44
2023-01-05T02:00:14.807Z,98686.72
2023-01-05T02:02:46.798Z,98668.19
2023-01-05T02:05:18.246Z,98665.53
2023-01-05T02:07:47.368Z,98668.06
2023-01-05T02:10:19.193Z,98664.44
2023-01-05T02:12:46.534Z,98658.25
2023-01-05T02:15:31.950Z,98647.91
2023-01-05T02:18:08.696Z,98652.13
2023-01-05T02:20:53.426Z,98643.84
2023-01-05T02:23:32.941Z,98643.03
2023-01-05T02:26:18.381Z,98639.59
2023-01-05T02:29:10.611Z,98645.69
2023-01-05T02:32:13.560Z,98637.78
2023-01-05T02:34:54.211Z,98637.88
2023-01-05T02:37:41.416Z,98636.44
2023-01-05T02:40:22.323Z,98637.28
2023-01-05T02:42:51.659Z,98628.03
2023-01-05T02:45:22.902Z,98626.59
2023-01-05T02:47:54.298Z,98623.44
2023-01-05T02:50:26.652Z,98632.06
2023-01-05T02:53:14.135Z,98609.41
2023-01-05T02:55:50.367Z,98609.97
2023-01-05T02:58:32.813Z,98605.38
2023-01-05T03:01:11.900Z,98602.09
2023-01-05T03:03:53.837Z,98609.09
2023-01-05T03:06:56.807Z,98614.13
2023-01-05T03:09:36.890Z,98614.75
2023-01-05T03:12:40.196Z,98612.09
2023-01-05T03:15:30.752Z,98609.34
2023-01-05T03:18:05.023Z,98612.38
2023-01-05T03:20:37.305Z,98614.41
2023-01-05T03:23:28.639Z,98628.00
2023-01-05T03:26:15.132Z,98631.81
2023-01-05T03:29:10.243Z,98629.31
2023-01-05T03:32:12.201Z,98629.84
2023-01-05T03:35:29.054Z,98632.81
2023-01-05T03:38:07.647Z,98619.84
2023-01-05T03:40:38.446Z,98622.72
2023-01-05T03:43:07.219Z,98619.94
2023-01-05T03:45:41.490Z,98615.63
2023-01-05T03:48:12.232Z,98620.28
2023-01-05T03:50:39.211Z,98629.44
2023-01-05T03:53:07.893Z,98619.84
2023-01-05T03:55:35.623Z,98624.50
2023-01-05T03:58:02.791Z,98620.06
2023-01-05T04:00:30.545Z,98625.03
2023-01-05T04:03:03.939Z,98633.28
2023-01-05T04:05:31.259Z,98630.19
2023-01-05T04:07:59.220Z,98625.47
2023-01-05T04:10:26.256Z,98615.41
2023-01-05T04:12:54.437Z,98619.75
2023-01-05T04:15:21.766Z,98620.56
2023-01-05T04:17:48.951Z,98612.75
2023-01-05T04:20:16.456Z,98617.69
2023-01-05T04:22:43.859Z,98608.47
2023-01-05T04:25:11.618Z,98610.38
2023-01-05T04:27:41.772Z,98617.25
2023-01-05T04:30:10.140Z,98611.09
2023-01-05T04:32:38.089Z,98604.06
2023-01-05T04:35:10.919Z,98608.66
2023-01-05T04:37:40.548Z,98617.69
2023-01-05T04:40:09.640Z,98617.03
2023-01-05T04:42:46.312Z,98623.28
2023-01-05T04:45:13.939Z,98629.91
2023-01-05T04:47:41.386Z,98629.31
2023-01-05T04:50:10.963Z,98621.22
2023-01-05T04:52:39.303Z,98619.16
2023-01-05T04:55:07.559Z,98626.94
2023-01-05T04:57:35.532Z,98631.25
2023-01-05T05:00:04.206Z,98622.53
2023-01-05T05:02:32.469Z,98635.47
2023-01-05T05:05:00.827Z,98621.09
2023-01-05T05:07:28.246Z,98629.03
2023-01-05T05:09:55.762Z,98640.47
2023-01-05T05:12:23.232Z,98642.88
2023-01-05T05:14:52.727Z,98638.66
2023-01-05T05:17:20.154Z,98642.38
2023-01-05T05:19:50.061Z,98645.97
2023-01-05T05:22:20.309Z,98644.38
2023-01-05T05:24:47.741Z,98659.16
2023-01-05T05:27:15.320Z,98653.38
2023-01-05T05:29:42.687Z,98662.19
2023-01-05T05:32:10.068Z,98665.88
2023-01-05T05:34:37.430Z,98658.91
2023-01-05T05:37:04.801Z,98678.47
2023-01-05T05:39:32.140Z,98678.56
2023-01-05T05:41:59.481Z,98677.13
2023-01-05T05:44:26.893Z,98687.19
2023-01-05T05:46:54.285Z,98688.03
2023-01-05T05:49:21.751Z,98692.81
2023-01-05T05:51:49.060Z,98691.94
2023-01-05T05:54:16.539Z,98696.63
2023-01-05T05:56:43.910Z,98711.94
2023-01-05T05:59:11.260Z,98714.59
2023-01-05T06:01:38.714Z,98724.09
2023-01-05T06:04:06.152Z,98715.00
2023-01-05T06:06:33.514Z,98724.50
2023-01-05T06:09:00.837Z,98736.38
2023-01-05T06:11:28.204Z,98740.16
2023-01-05T06:13:55.744Z,98741.03
2023-01-05T06:16:23.120Z,98754.25
2023-01-05T06:18:50.568Z,98752.84
2023-01-05T06:21:17.944Z,98763.41
2023-01-05T06:23:45.413Z,98758.25
2023-01-05T06:26:12.746Z,98772.31
2023-01-05T06:28:40.070Z,98770.81
2023-01-05T06:31:07.840Z,98786.03
2023-01-05T06:33:35.270Z,98797.84
2023-01-05T06:36:02.589Z,98799.66
2023-01-05T06:38:30.201Z,98812.31
2023-01-05T06:40:58.156Z,98795.56
2023-01-05T06:43:25.618Z,98806.53
2023-01-05T06:45:53.109Z,98802.06
2023-01-05T06:48:20.498Z,98804.19
2023-01-05T06:50:47.899Z,98801.69
2023-01-05T06:53:15.267Z,98801.69
2023-01-05T06:55:42.686Z,98799.97
2023-01-05T06:58:10.004Z,98799.75
2023-01-05T07:00:37.473Z,98797.41
2023-01-05T07:03:06.046Z,98806.31
2023-01-05T07:05:33.568Z,98809.69
2023-01-05T07:08:00.887Z,98805.56
2023-01-05T07:10:28.400Z,98811.78
2023-01-05T07:12:55.791Z,98813.78
2023-01-05T07:15:23.248Z,98808.72
2023-01-05T07:17:50.586Z,98806.81
2023-01-05T07:20:18.006Z,98813.91
2023-01-05T07:22:45.296Z,98819.06
2023-01-05T07:25:12.720Z,98813.91
2023-01-05T07:27:40.117Z,98824.56
2023-01-05T07:30:08.122Z,98836.06
2023-01-05T07:32:35.491Z,98827.84
2023-01-05T07:35:03.110Z,98830.03
2023-01-05T07:37:30.528Z,98824.66
2023-01-05T07:39:57.871Z,98828.16
2023-01-05T07:42:26.119Z,98826.03
2023-01-05T07:44:53.530Z,98821.38
2023-01-05T07:47:20.936Z,98838.88
2023-01-05T07:49:48.365Z,98834.66
2023-01-05T07:52:17.069Z,98848.91
2023-01-05T07:54:45.254Z,98848.28
2023-01-05T07:57:15.327Z,98849.97
2023-01-05T07:59:42.726Z,98859.66
2023-01-05T08:02:10.969Z,98863.91
2023-01-05T08:04:38.533Z,98862.22
2023-01-05T08:07:11.181Z,98871.72
2023-01-05T08:09:57.937Z,98873.09
2023-01-05T08:12:25.433Z,98860.44
2023-01-05T08:14:52.832Z,98867.59
2023-01-05T08:17:20.135Z,98877.22
2023-01-05T08:19:47.691Z,98873.13
2023-01-05T08:22:15.071Z,98866.59
2023-01-05T08:24:42.397Z,98878.75
2023-01-05T08:27:09.985Z,98877.56
2023-01-05T08:29:37.382Z,98880.88
2023-01-05T08:32:04.930Z,98890.91
2023-01-05T08:34:34.872Z,98887.31
2023-01-05T08:37:02.557Z,98889.84
2023-01-05T08:39:29.958Z,98888.88
2023-01-05T08:42:02.229Z,98894.81
2023-01-05T08:44:30.185Z,98884.47
2023-01-05T08:46:57.530Z,98889.00
2023-01-05T08:49:24.883Z,98893.25
2023-01-05T08:51:52.237Z,98902.97
2023-01-05T08:54:19.518Z,98901.59
2023-01-05T08:56:50.523Z,98898.41
2023-01-05T08:59:17.898Z,98907.06
2023-01-05T09:01:45.328Z,98907.81
2023-01-05T09:04:12.742Z,98911.59
2023-01-05T09:06:41.383Z,98907.06
2023-01-05T09:09:08.791Z,98908.78
2023-01-05T09:11:36.355Z,98910.56
2023-01-05T09:14:03.775Z,98912.34
2023-01-05T09:19:20.734Z,98918.81
2023-01-05T09:21:48.109Z,98919.34
2023-01-05T09:24:15.474Z,98928.22
2023-01-05T09:26:43.602Z,98928.09
2023-01-05T09:29:12.002Z,98936.16
2023-01-05T09:31:40.867Z,98934.75
2023-01-05T09:34:08.518Z,98940.91
2023-01-05T09:36:38.692Z,98947.78
2023-01-05T09:39:06.372Z,98943.88
2023-01-05T09:41:55.786Z,98952.63
2023-01-05T09:44:35.297Z,98952.53
2023-01-05T09:47:23.670Z,98948.94
2023-01-05T09:49:51.686Z,98959.50
2023-01-05T09:52:21.701Z,98963.63
2023-01-05T09:54:49.400Z,98967.13
2023-01-05T09:57:20.784Z,98953.59
2023-01-05T09:59:51.496Z,98954.66
2023-01-05T10:02:21.104Z,98956.22
2023-01-05T10:04:49.203Z,98958.47
2023-01-05T10:07:45.454Z,98967.34
2023-01-05T10:10:30.236Z,98969.97
2023-01-05T10:13:03.016Z,98964.69
2023-01-05T10:15:49.286Z,98976.84
2023-01-05T10:18:22.871Z,98969.97
2023-01-05T10:21:03.978Z,98972.41
2023-01-05T10:24:01.630Z,98978.75
2023-01-05T10:27:24.203Z,98980.31
2023-01-05T10:29:47.113Z,98973.16
2023-01-05T10:32:27.353Z,98977.19
2023-01-05T10:35:41.685Z,98979.28
2023-01-05T10:38:18.223Z,98978.09
2023-01-05T10:41:24.223Z,98977.19
2023-01-05T10:44:27.969Z,98970.31
2023-01-05T10:46:54.929Z,98973.38
2023-01-05T10:49:31.399Z,98981.19
2023-01-05T10:52:00.446Z,98971.44
2023-01-05T10:54:38.814Z,98973.03
2023-01-05T10:57:34.839Z,98978.75
2023-01-05T11:00:07.110Z,98986.47
2023-01-05T11:02:37.696Z,98984.88
2023-01-05T11:05:22.631Z,98979.59
2023-01-05T11:07:53.148Z,98982.75
2023-01-05T11:10:31.857Z,98969.31
2023-01-05T11:13:15.585Z,98979.75
2023-01-05T11:16:09.416Z,98978.13
2023-01-05T11:18:42.487Z,98981.94
2023-01-05T11:21:15.999Z,98989.31
2023-01-05T11:23:49.991Z,98981.53
2023-01-05T11:26:27.698Z,98990.06
2023-01-05T11:29:09.171Z,98994.09
2023-01-05T11:32:07.004Z,98990.72
2023-01-05T11:34:46.010Z,98986.59
2023-01-05T11:37:12.945Z,98983.09
2023-01-05T11:39:42.395Z,98990.28
2023-01-05T11:42:21.506Z,98995.59
2023-01-05T11:45:00.944Z,98990.19
2023-01-05T11:47:43.975Z,98978.94
2023-01-05T11:50:14.379Z,98981.41
2023-01-05T11:52:50.178Z,98986.69
2023-01-05T11:55:40.121Z,98979.31
2023-01-05T11:58:26.473Z,98985.28
2023-01-05T12:01:10.153Z,98977.81
2023-01-05T12:04:01.398Z,98988.25
2023-01-05T12:06:43.890Z,98989.88
2023-01-05T12:09:23.452Z,98988.16
2023-01-05T12:12:06.048Z,98994.19
2023-01-05T12:15:08.736Z,98990.53
2023-01-05T12:17:41.487Z,98993.06
2023-01-05T12:20:33.240Z,99000.34
2023-01-05T12:23:34.248Z,98991.44
2023-01-05T12:26:18.434Z,99002.56
2023-01-05T12:29:21.353Z,98999.69
2023-01-05T12:35:44.709Z,99000.34
2023-01-05T12:38:33.870Z,99001.41
2023-01-05T12:41:21.950Z,99010.47
2023-01-05T12:44:38.405Z,99004.44
2023-01-05T12:47:52.842Z,99009.81
2023-01-05T12:50:51.951Z,99004.53
2023-01-05T12:53:49.688Z,99008.69
2023-01-05T12:56:31.157Z,99003.69
2023-01-05T12:59:37.743Z,98997.88
2023-01-05T13:02:07.824Z,99007.63
2023-01-05T13:04:50.379Z,99013.22
2023-01-05T13:08:02.086Z,99009.31
2023-01-05T13:10:56.889Z,99003.81
2023-01-05T13:13:38.513Z,99005.59
2023-01-05T13:16:13.857Z,99013.53
2023-01-05T13:18:49.467Z,99010.25
2023-01-05T13:21:17.507Z,99011.72
2023-01-05T13:24:01.753Z,99007.63
2023-01-05T13:26:37.459Z,99010.78
2023-01-05T13:29:05.411Z,99015.66
2023-01-05T13:31:41.919Z,99007.72
2023-01-05T13:34:27.420Z,98997.06
2023-01-05T13:37:16.524Z,99002.97
2023-01-05T13:40:21.189Z,99010.88
2023-01-05T13:43:22.322Z,99008.91
2023-01-05T13:46:14.665Z,99010.09
2023-01-05T13:49:05.297Z,99019.16
2023-01-05T13:51:56.831Z,99019.16
2023-01-05T13:55:01.972Z,99018.78
2023-01-05T13:57:35.519Z,99017.38
2023-01-05T14:00:19.238Z,99021.28
2023-01-05T14:02:53.863Z,99030.25
2023-01-05T14:05:30.353Z,99015.22
2023-01-05T14:07:59.442Z,99029.28
2023-01-05T14:10:30.649Z,99025.50
2023-01-05T14:12:58.620Z,99031.31
2023-01-05T14:15:42.344Z,99026.97
2023-01-05T14:18:11.144Z,99027.28
2023-01-05T14:20:49.113Z,99025.28
2023-01-05T14:23:25.694Z,99032.91
2023-01-05T14:25:57.270Z,99033.56
2023-01-05T14:28:30.839Z,99032.00
2023-01-05T14:31:19.243Z,99032.09
2023-01-05T14:33:59.197Z,99035.03
2023-01-05T14:36:39.738Z,99039.38
2023-01-05T14:39:19.626Z,99033.66
2023-01-05T14:41:59.698Z,99037.44
2023-01-05T14:44:40.985Z,99044.03
2023-01-05T14:47:08.412Z,99045.84
2023-01-05T14:49:43.570Z,99052.34
2023-01-05T14:52:19.964Z,99050.88
2023-01-05T14:54:50.126Z,99056.78
2023-01-05T14:57:26.120Z,99060.50
2023-01-05T15:00:05.641Z,99067.84
2023-01-05T15:02:54.653Z,99073.72
2023-01-05T15:05:23.501Z,99066.00
2023-01-05T15:08:12.871Z,99072.97
2023-01-05T15:11:04.069Z,99073.19
2023-01-05T15:14:23.550Z,99080.38
2023-01-05T15:17:11.836Z,99075.06
2023-01-05T15:20:13.238Z,99067.03
2023-01-05T15:22:46.162Z,99060.34
2023-01-05T15:25:35.476Z,99068.28
2023-01-05T15:28:24.734Z,99068.19
2023-01-05T15:31:23.927Z,99074.44
2023-01-05T15:34:20.501Z,99065.88
2023-01-05T15:37:18.184Z,99074.31
2023-01-05T15:39:56.100Z,99067.53
2023-01-05T15:42:28.212Z,99066.59
2023-01-05T15:44:56.632Z,99071.22
2023-01-05T15:47:27.531Z,99071.44
2023-01-05T15:50:01.887Z,99067.88
2023-01-05T15:52:36.550Z,99068.41
2023-01-05T15:55:15.541Z,99066.50
2023-01-05T15:57:43.376Z,99072.63
2023-01-05T16:00:26.152Z,99070.19
2023-01-05T16:02:53.490Z,99069.75
2023-01-05T16:05:27.507Z,99072.94
2023-01-05T16:07:59.855Z,99071.34
2023-01-05T16:10:29.668Z,99074.09
2023-01-05T16:13:04.834Z,99076.63
2023-01-05T16:15:34.367Z,99079.88
2023-01-05T16:18:03.170Z,99080.28
2023-01-05T16:20:30.888Z,99086.94
2023-01-05T16:23:13.246Z,99081.25
2023-01-05T16:25:43.665Z,99080.09
2023-01-05T16:28:17.426Z,99079.72
2023-01-05T16:30:46.570Z,99078.91
2023-01-05T16:33:38.571Z,99085.78
2023-01-05T16:36:26.126Z,99089.22
2023-01-05T16:38:53.090Z,99087.13
2023-01-05T16:41:26.253Z,99086.06
2023-01-05T16:43:58.075Z,99090.59
2023-01-05T16:46:35.837Z,99099.41
2023-01-05T16:49:07.503Z,99097.69
2023-01-05T16:51:38.697Z,99092.81
2023-01-05T16:54:15.343Z,99088.38
2023-01-05T16:57:01.565Z,99091.31
2023-01-05T16:59:40.976Z,99092.66
2023-01-05T17:02:29.321Z,99092.69
2023-01-05T17:04:56.914Z,99090.56
2023-01-05T17:07:24.424Z,99083.69
2023-01-05T17:09:51.999Z,99087.34
2023-01-05T17:12:20.120Z,99079.66
2023-01-05T17:14:47.680Z,99080.69
2023-01-05T17:17:15.161Z,99081.91
2023-01-05T17:19:42.476Z,99076.75
2023-01-05T17:22:12.733Z,99071.28
2023-01-05T17:24:40.709Z,99073.84
2023-01-05T17:27:10.537Z,99072.69
2023-01-05T17:29:37.884Z,99071.84
2023-01-05T17:32:04.970Z,99069.41
2023-01-05T17:34:32.391Z,99066.41
2023-01-05T17:37:00.797Z,99070.25
2023-01-05T17:39:28.122Z,99060.66
2023-01-05T17:42:15.473Z,99065.03
2023-01-05T17:44:42.782Z,99063.22
2023-01-05T17:47:10.141Z,99069.63
2023-01-05T17:49:37.545Z,99071.97
2023-01-05T17:52:05.120Z,99063.22
2023-01-05T17:54:34.186Z,99063.22
2023-01-05T17:57:01.591Z,99061.63
2023-01-05T17:59:28.731Z,99071.34
2023-01-05T18:01:56.289Z,99076.22
2023-01-05T18:04:24.762Z,99076.50
2023-01-05T18:06:53.859Z,99069.25
2023-01-05T18:09:21.358Z,99077.16
2023-01-05T18:11:50.160Z,99071.44
2023-01-05T18:14:19.083Z,99073.56
2023-01-05T18:16:46.501Z,99068.78
2023-01-05T18:21:47.195Z,99066.47
2023-01-05T18:24:14.669Z,99065.84
2023-01-05T18:26:41.999Z,99060.97
2023-01-05T18:29:09.338Z,99060.47
2023-01-05T18:31:41.736Z,99054.88
2023-01-05T18:34:09.196Z,99063.38
2023-01-05T18:36:36.155Z,99063.84
2023-01-05T18:39:03.315Z,99054.34
2023-01-05T18:41:30.719Z,99056.84
2023-01-05T18:43:57.928Z,99054.41
2023-01-05T18:46:25.064Z,99058.22
2023-01-05T18:48:52.468Z,99062.81
2023-01-05T18:51:19.828Z,99061.38
2023-01-05T18:53:47.302Z,99062.09
2023-01-05T18:56:15.677Z,99054.28
2023-01-05T18:58:43.375Z,99053.44
2023-01-05T19:01:13.776Z,99053.69
2023-01-05T19:03:41.595Z,99056.69
2023-01-05T19:06:19.044Z,99053.75
2023-01-05T19:08:48.896Z,99050.94
2023-01-05T19:11:23.057Z,99047.34
2023-01-05T19:13:50.704Z,99047.84
2023-01-05T19:16:22.402Z,99047.34
2023-01-05T19:18:53.358Z,99059.16
2023-01-05T19:21:23.141Z,99054.66
2023-01-05T19:23:56.756Z,99058.50
2023-01-05T19:26:25.353Z,99051.81
2023-01-05T19:28:52.912Z,99050.72
2023-01-05T19:31:23.182Z,99053.13
2023-01-05T19:33:51.121Z,99056.06
2023-01-05T19:36:20.949Z,99055.97
2023-01-05T19:38:48.249Z,99055.47
2023-01-05T19:41:19.335Z,99056.88
2023-01-05T19:43:52.521Z,99064.25
2023-01-05T19:46:22.031Z,99062.75
2023-01-05T19:48:49.650Z,99057.50
2023-01-05T19:51:23.468Z,99054.78
2023-01-05T19:54:02.862Z,99049.53
2023-01-05T19:56:33.408Z,99056.06
2023-01-05T19:59:04.789Z,99049.41
2023-01-05T20:01:35.306Z,99052.41
2023-01-05T20:04:02.965Z,99045.19
2023-01-05T20:06:34.244Z,99044.78
2023-01-05T20:09:05.406Z,99047.16
2023-01-05T20:11:35.841Z,99043.09
2023-01-05T20:14:20.016Z,99041.38
2023-01-05T20:16:51.447Z,99044.13
2023-01-05T20:19:20.089Z,99041.31
2023-01-05T20:21:51.276Z,99037.66
2023-01-05T20:24:24.530Z,99036.34
2023-01-05T20:26:55.176Z,99037.34
2023-01-05T20:29:24.230Z,99046.72
2023-01-05T20:32:04.475Z,99045.56
2023-01-05T20:34:35.535Z,99043.25
2023-01-05T20:37:07.123Z,99045.91
2023-01-05T20:39:36.359Z,99044.44
2023-01-05T20:42:07.019Z,99043.16
2023-01-05T20:44:40.737Z,99040.28
2023-01-05T20:47:09.286Z,99036.13
2023-01-05T20:49:38.497Z,99036.00
2023-01-05T20:52:06.580Z,99036.31
2023-01-05T20:54:34.099Z,99026.84
2023-01-05T20:57:01.080Z,99033.19
2023-01-05T20:59:33.146Z,99027.75
2023-01-05T21:02:00.876Z,99029.06
2023-01-05T21:04:30.048Z,99029.56
2023-01-05T21:07:00.224Z,99032.97
2023-01-05T21:09:29.482Z,99033.75
2023-01-05T21:11:59.609Z,99034.63
2023-01-05T21:14:26.806Z,99034.16
2023-01-05T21:16:55.257Z,99029.00
2023-01-05T21:19:24.261Z,99030.78
2023-01-05T21:21:56.040Z,99024.97
2023-01-05T21:24:23.761Z,99029.28
2023-01-05T21:26:51.321Z,99028.38
2023-01-05T21:29:22.106Z,99025.16
2023-01-05T21:31:50.468Z,99021.28
2023-01-05T21:34:17.890Z,99020.28
2023-01-05T21:36:46.128Z,99008.81
2023-01-05T21:39:19.811Z,99017.13
2023-01-05T21:42:07.118Z,99016.00
2023-01-05T21:44:34.909Z,99006.50
2023-01-05T21:47:04.636Z,99006.78
2023-01-05T21:49:32.657Z,99003.88
2023-01-05T21:52:18.044Z,99002.72
2023-01-05T21:55:03.507Z,99001.31
2023-01-05T21:57:30.555Z,98989.91
2023-01-05T21:59:57.476Z,98997.94
2023-01-05T22:02:24.415Z,98990.59
2023-01-05T22:04:51.434Z,98990.31
2023-01-05T22:07:18.355Z,98981.28
2023-01-05T22:09:45.380Z,98982.03
2023-01-05T22:12:12.385Z,98978.09
2023-01-05T22:14:39.835Z,98973.75
2023-01-05T22:17:08.666Z,98978.84
2023-01-05T22:19:35.962Z,98977.25
2023-01-05T22:22:03.290Z,98973.59
2023-01-05T22:24:30.255Z,98978.72
2023-01-05T22:26:57.223Z,98982.88
2023-01-05T22:29:24.544Z,98977.50
2023-01-05T22:31:52.092Z,98982.78
2023-01-05T22:34:19.316Z,98978.81
2023-01-05T22:36:46.356Z,98981.13
2023-01-05T22:39:13.433Z,98977.56
2023-01-05T22:41:40.715Z,98981.59
2023-01-05T22:44:08.558Z,98979.25
2023-01-05T22:46:35.480Z,98984.38
2023-01-05T22:49:02.486Z,98979.41
2023-01-05T22:51:34.671Z,98980.22
2023-01-05T22:54:02.727Z,98978.59
2023-01-05T22:56:32.313Z,98979.94
2023-01-05T22:59:00.504Z,98974.84
2023-01-05T23:01:38.596Z,98979.44
2023-01-05T23:04:07.220Z,98983.13
2023-01-05T23:06:35.092Z,98985.44
2023-01-05T23:09:04.742Z,98975.00
2023-01-05T23:11:35.518Z,98974.81
2023-01-05T23:14:05.192Z,98973.03
2023-01-05T23:16:34.097Z,98968.66
2023-01-05T23:19:02.633Z,98968.25
2023-01-05T23:21:30.145Z,98973.19
2023-01-05T23:23:58.478Z,98962.63
2023-01-05T23:26:27.562Z,98962.28
2023-01-05T23:28:54.701Z,98958.53
2023-01-05T23:31:22.135Z,98964.16
2023-01-05T23:33:50.000Z,98963.63
2023-01-05T23:36:19.076Z,98959.09
2023-01-05T23:38:46.798Z,98955.78
2023-01-05T23:41:16.287Z,98952.09
2023-01-05T23:43:45.169Z,98947.16
2023-01-05T23:46:20.736Z,98952.09
2023-01-05T23:48:49.329Z,98947.72
2023-01-05T23:51:18.181Z,98936.38
2023-01-05T23:53:50.296Z,98947.28
2023-01-05T23:56:28.735Z,98938.75
2023-01-05T23:59:06.504Z,98932.34
